createdAt,value
2023-01-22T00:00:40.249Z,102426.81
2023-01-22T00:03:29.579Z,102407.06
2023-01-22T00:06:18.913Z,102414.47
2023-01-22T00:09:09.606Z,102410.91
2023-01-22T00:11:59.248Z,102413.94
2023-01-22T00:14:49.819Z,102398.63
2023-01-22T00:17:39.048Z,102417.50
2023-01-22T00:20:28.313Z,102401.63
2023-01-22T00:23:17.882Z,102403.53
2023-01-22T00:26:12.169Z,102345.47
2023-01-22T00:29:03.047Z,102400.72
2023-01-22T00:31:52.298Z,102386.84
2023-01-22T00:34:41.632Z,102380.81
2023-01-22T00:37:31.031Z,102390.41
2023-01-22T00:40:20.837Z,102385.75
2023-01-22T00:43:11.757Z,102380.84
2023-01-22T00:46:01.179Z,102382.75
2023-01-22T00:48:51.242Z,102393.66
2023-01-22T00:51:40.628Z,102379.44
2023-01-22T00:54:31.121Z,102378.34
2023-01-22T00:57:22.033Z,102381.63
2023-01-22T01:00:18.559Z,102391.75
2023-01-22T01:03:28.404Z,102368.75
2023-01-22T01:06:20.630Z,102387.06
2023-01-22T01:09:10.190Z,102382.16
2023-01-22T01:12:00.524Z,102377.19
2023-01-22T01:14:50.760Z,102375.06
2023-01-22T01:17:41.429Z,102368.75
2023-01-22T01:20:30.709Z,102369.03
2023-01-22T01:23:19.973Z,102372.03
2023-01-22T01:26:12.013Z,102356.44
2023-01-22T01:29:01.397Z,102332.09
2023-01-22T01:31:53.436Z,102341.97
2023-01-22T01:34:45.686Z,102333.75
2023-01-22T01:37:35.030Z,102343.59
2023-01-22T01:40:24.395Z,102351.53
2023-01-22T01:43:17.107Z,102342.22
2023-01-22T01:46:16.183Z,102327.72
2023-01-22T01:49:06.707Z,102325.53
2023-01-22T01:52:02.751Z,102319.78
2023-01-22T01:54:57.966Z,102320.91
2023-01-22T01:57:47.740Z,102335.13
2023-01-22T02:00:40.735Z,102330.19
2023-01-22T02:03:31.352Z,102298.44
2023-01-22T02:06:21.750Z,102304.47
2023-01-22T02:09:12.631Z,102294.91
2023-01-22T02:12:01.937Z,102327.19
2023-01-22T02:14:52.704Z,102325.28
2023-01-22T02:17:42.555Z,102338.13
2023-01-22T02:20:37.781Z,102316.50
2023-01-22T02:23:32.824Z,102314.31
2023-01-22T02:26:22.969Z,102321.44
2023-01-22T02:29:15.439Z,102303.09
2023-01-22T02:32:05.309Z,102311.03
2023-01-22T02:34:54.746Z,102322.81
2023-01-22T02:37:45.616Z,102316.78
2023-01-22T02:40:35.092Z,102323.06
2023-01-22T02:43:24.890Z,102319.50
2023-01-22T02:46:14.215Z,102329.38
2023-01-22T02:49:03.557Z,102324.69
2023-01-22T02:51:55.231Z,102320.34
2023-01-22T02:54:47.456Z,102312.66
2023-01-22T02:57:36.642Z,102288.56
2023-01-22T03:00:26.098Z,102294.03
2023-01-22T03:03:16.462Z,102309.09
2023-01-22T03:06:07.257Z,102315.66
2023-01-22T03:08:59.702Z,102312.69
2023-01-22T03:11:50.754Z,102289.41
2023-01-22T03:15:04.779Z,102279.53
2023-01-22T03:18:10.961Z,102271.31
2023-01-22T03:21:16.794Z,102264.78
2023-01-22T03:24:06.891Z,102255.22
2023-01-22T03:26:57.594Z,102253.25
2023-01-22T03:29:47.118Z,102258.19
2023-01-22T03:32:36.310Z,102274.09
2023-01-22T03:35:25.603Z,102262.03
2023-01-22T03:38:29.121Z,102281.19
2023-01-22T03:41:20.020Z,102278.72
2023-01-22T03:44:14.400Z,102290.47
2023-01-22T03:47:05.053Z,102296.50
2023-01-22T03:49:54.328Z,102287.22
2023-01-22T03:52:43.948Z,102287.19
2023-01-22T03:55:33.422Z,102292.66
2023-01-22T03:58:22.619Z,102332.38
2023-01-22T04:01:16.524Z,102330.16
2023-01-22T04:04:06.685Z,102336.47
2023-01-22T04:06:55.980Z,102328.00
2023-01-22T04:09:45.552Z,102321.69
2023-01-22T04:12:35.301Z,102315.13
2023-01-22T04:15:24.602Z,102321.72
2023-01-22T04:18:17.701Z,102308.28
2023-01-22T04:21:39.325Z,102312.38
2023-01-22T04:24:31.587Z,102311.53
2023-01-22T04:27:22.109Z,102317.59
2023-01-22T04:30:14.572Z,102286.13
2023-01-22T04:33:04.182Z,102257.09
2023-01-22T04:36:07.056Z,102254.63
2023-01-22T04:38:56.435Z,102267.22
2023-01-22T04:41:45.709Z,102256.03
2023-01-22T04:44:35.933Z,102253.28
2023-01-22T04:47:25.237Z,102256.56
2023-01-22T04:50:19.060Z,102259.88
2023-01-22T04:53:11.178Z,102272.41
2023-01-22T04:56:00.936Z,102274.06
2023-01-22T04:58:50.779Z,102277.34
2023-01-22T05:01:40.168Z,102301.16
2023-01-22T05:04:29.531Z,102296.78
2023-01-22T05:07:18.842Z,102295.44
2023-01-22T05:10:11.503Z,102307.16
2023-01-22T05:13:05.343Z,102315.97
2023-01-22T05:15:55.221Z,102276.84
2023-01-22T05:18:46.955Z,102315.94
2023-01-22T05:21:36.839Z,102327.47
2023-01-22T05:24:28.050Z,102317.06
2023-01-22T05:27:18.714Z,102317.34
2023-01-22T05:30:21.789Z,102314.31
2023-01-22T05:33:21.631Z,102316.50
2023-01-22T05:36:12.801Z,102310.75
2023-01-22T05:39:02.583Z,102318.97
2023-01-22T05:41:53.520Z,102313.22
2023-01-22T05:44:44.533Z,102316.22
2023-01-22T05:47:35.221Z,102320.88
2023-01-22T05:50:53.574Z,102304.19
2023-01-22T05:53:43.030Z,102308.53
2023-01-22T05:56:33.108Z,102302.22
2023-01-22T05:59:22.585Z,102310.47
2023-01-22T06:02:19.480Z,102320.09
2023-01-22T06:05:10.102Z,102320.34
2023-01-22T06:07:59.550Z,102314.84
2023-01-22T06:10:59.576Z,102313.47
2023-01-22T06:13:49.084Z,102260.13
2023-01-22T06:16:40.845Z,102307.47
2023-01-22T06:19:54.576Z,102294.59
2023-01-22T06:22:43.816Z,102303.63
2023-01-22T06:25:33.758Z,102320.59
2023-01-22T06:28:36.311Z,102313.22
2023-01-22T06:31:25.787Z,102302.25
2023-01-22T06:34:15.293Z,102327.69
2023-01-22T06:37:06.219Z,102319.50
2023-01-22T06:39:59.825Z,102330.44
2023-01-22T06:42:58.887Z,102310.44
2023-01-22T06:45:48.292Z,102321.13
2023-01-22T06:48:37.811Z,102309.09
2023-01-22T06:51:27.197Z,102309.63
2023-01-22T06:54:18.050Z,102301.97
2023-01-22T06:57:07.552Z,102297.03
2023-01-22T06:59:59.835Z,102291.31
2023-01-22T07:02:49.150Z,102295.41
2023-01-22T07:05:38.446Z,102283.63
2023-01-22T07:08:29.184Z,102283.38
2023-01-22T07:11:19.818Z,102298.72
2023-01-22T07:14:09.035Z,102287.47
2023-01-22T07:16:59.057Z,102304.16
2023-01-22T07:19:48.372Z,102311.84
2023-01-22T07:22:37.574Z,102315.97
2023-01-22T07:25:27.977Z,102331.00
2023-01-22T07:28:18.717Z,102323.31
2023-01-22T07:31:11.602Z,102338.66
2023-01-22T07:34:00.849Z,102343.06
2023-01-22T07:36:50.358Z,102342.50
2023-01-22T07:39:39.587Z,102339.50
2023-01-22T07:42:28.911Z,102344.16
2023-01-22T07:45:20.363Z,102333.19
2023-01-22T07:48:10.959Z,102338.66
2023-01-22T07:51:04.918Z,102331.56
2023-01-22T07:53:54.197Z,102340.88
2023-01-22T07:56:43.375Z,102346.88
2023-01-22T07:59:32.758Z,102339.78
2023-01-22T08:02:23.532Z,102342.25
2023-01-22T08:05:14.973Z,102355.94
2023-01-22T08:08:04.220Z,102361.69
2023-01-22T08:10:53.489Z,102352.34
2023-01-22T08:13:43.020Z,102362.78
2023-01-22T08:16:32.304Z,102357.84
2023-01-22T08:19:23.047Z,102372.63
2023-01-22T08:22:12.340Z,102373.16
2023-01-22T08:25:01.654Z,102369.34
2023-01-22T08:27:50.812Z,102372.66
2023-01-22T08:30:46.012Z,102378.13
2023-01-22T08:33:36.369Z,102378.94
2023-01-22T08:36:27.064Z,102370.44
2023-01-22T08:39:16.322Z,102376.47
2023-01-22T08:42:05.714Z,102372.34
2023-01-22T08:44:55.022Z,102372.09
2023-01-22T08:47:44.239Z,102374.84
2023-01-22T08:50:33.430Z,102368.22
2023-01-22T08:53:24.389Z,102357.00
2023-01-22T08:56:13.659Z,102365.19
2023-01-22T08:59:06.635Z,102374.78
2023-01-22T09:01:56.143Z,102360.25
2023-01-22T09:04:45.381Z,102376.44
2023-01-22T09:07:34.711Z,102384.09
2023-01-22T09:10:25.684Z,102375.34
2023-01-22T09:13:15.025Z,102379.16
2023-01-22T09:16:06.154Z,102379.69
2023-01-22T09:18:55.900Z,102376.38
2023-01-22T09:21:45.288Z,102374.75
2023-01-22T09:24:34.866Z,102374.75
2023-01-22T09:27:25.588Z,102372.00
2023-01-22T09:30:15.649Z,102382.66
2023-01-22T09:33:05.104Z,102378.31
2023-01-22T09:35:54.421Z,102399.09
2023-01-22T09:38:43.933Z,102401.28
2023-01-22T09:41:35.871Z,102397.69
2023-01-22T09:44:35.198Z,102396.06
2023-01-22T09:47:34.445Z,102394.13
2023-01-22T09:50:27.448Z,102407.00
2023-01-22T09:53:21.202Z,102403.16
2023-01-22T09:56:20.940Z,102406.16
2023-01-22T09:59:18.606Z,102399.84
2023-01-22T10:02:25.455Z,102411.63
2023-01-22T10:05:32.100Z,102415.19
2023-01-22T10:08:24.912Z,102404.69
2023-01-22T10:11:14.328Z,102411.28
2023-01-22T10:14:07.171Z,102414.28
2023-01-22T10:16:59.567Z,102423.00
2023-01-22T10:19:55.086Z,102425.47
2023-01-22T10:22:44.300Z,102432.88
2023-01-22T10:25:34.722Z,102437.03
2023-01-22T10:28:28.458Z,102452.91
2023-01-22T10:31:31.052Z,102431.53
2023-01-22T10:34:30.360Z,102456.47
2023-01-22T10:37:21.087Z,102441.09
2023-01-22T10:40:26.693Z,102458.38
2023-01-22T10:43:18.734Z,102436.41
2023-01-22T10:46:20.720Z,102441.84
2023-01-22T10:49:20.412Z,102453.91
2023-01-22T10:52:24.868Z,102444.59
2023-01-22T10:55:24.567Z,102449.53
2023-01-22T10:58:18.563Z,102445.66
2023-01-22T11:01:32.675Z,102449.44
2023-01-22T11:04:25.507Z,102440.91
2023-01-22T11:07:22.093Z,102445.78
2023-01-22T11:10:25.393Z,102453.72
2023-01-22T11:13:17.585Z,102455.94
2023-01-22T11:16:16.404Z,102455.44
2023-01-22T11:19:13.246Z,102452.97
2023-01-22T11:22:04.712Z,102461.69
2023-01-22T11:24:54.176Z,102468.25
2023-01-22T11:28:08.167Z,102458.13
2023-01-22T11:31:40.947Z,102462.34
2023-01-22T11:34:59.072Z,102460.38
2023-01-22T11:38:06.503Z,102457.34
2023-01-22T11:41:16.510Z,102451.00
2023-01-22T11:44:52.799Z,102456.47
2023-01-22T11:48:02.619Z,102457.78
2023-01-22T11:51:01.399Z,102452.28
2023-01-22T11:54:18.804Z,102457.69
2023-01-22T11:57:18.250Z,102444.06
2023-01-22T12:00:45.626Z,102451.41
2023-01-22T12:04:10.162Z,102443.78
2023-01-22T12:07:45.799Z,102450.06
2023-01-22T12:11:08.375Z,102435.81
2023-01-22T12:14:24.713Z,102442.63
2023-01-22T12:17:30.553Z,102420.13
2023-01-22T12:20:47.405Z,102431.53
2023-01-22T12:23:45.530Z,102437.84
2023-01-22T12:26:39.403Z,102430.75
2023-01-22T12:29:34.409Z,102440.88
2023-01-22T12:32:27.853Z,102426.69
2023-01-22T12:35:19.920Z,102434.91
2023-01-22T12:38:21.155Z,102430.72
2023-01-22T12:41:24.448Z,102426.03
2023-01-22T12:44:26.736Z,102424.38
2023-01-22T12:47:24.218Z,102421.25
2023-01-22T12:50:24.127Z,102413.03
2023-01-22T12:53:26.210Z,102402.94
2023-01-22T12:56:15.389Z,102409.41
2023-01-22T12:59:04.671Z,102407.75
2023-01-22T13:02:01.535Z,102406.63
2023-01-22T13:04:51.484Z,102388.25
2023-01-22T13:07:43.055Z,102388.78
2023-01-22T13:10:34.962Z,102388.06
2023-01-22T13:13:30.788Z,102388.84
2023-01-22T13:16:28.744Z,102383.19
2023-01-22T13:19:24.557Z,102395.34
2023-01-22T13:22:18.288Z,102390.84
2023-01-22T13:25:24.283Z,102382.94
2023-01-22T13:28:19.513Z,102388.44
2023-01-22T13:31:17.134Z,102388.88
2023-01-22T13:34:09.045Z,102398.88
2023-01-22T13:36:59.429Z,102386.16
2023-01-22T13:39:48.675Z,102388.06
2023-01-22T13:42:42.174Z,102382.81
2023-01-22T13:45:33.204Z,102397.66
2023-01-22T13:48:27.275Z,102395.41
2023-01-22T13:51:21.839Z,102404.75
2023-01-22T13:54:20.581Z,102408.31
2023-01-22T13:57:12.907Z,102403.91
2023-01-22T14:00:05.572Z,102400.69
2023-01-22T14:02:56.493Z,102400.91
2023-01-22T14:05:45.676Z,102403.66
2023-01-22T14:08:47.801Z,102391.03
2023-01-22T14:11:41.209Z,102396.50
2023-01-22T14:14:41.140Z,102381.44
2023-01-22T14:17:34.520Z,102380.84
2023-01-22T14:20:23.810Z,102386.59
2023-01-22T14:23:13.606Z,102372.47
2023-01-22T14:26:06.214Z,102387.16
2023-01-22T14:28:55.580Z,102388.50
2023-01-22T14:31:44.873Z,102383.31
2023-01-22T14:34:35.547Z,102388.28
2023-01-22T14:37:24.980Z,102387.75
2023-01-22T14:40:17.720Z,102381.78
2023-01-22T14:43:08.018Z,102393.38
2023-01-22T14:45:57.282Z,102392.19
2023-01-22T14:48:46.655Z,102389.25
2023-01-22T14:51:37.185Z,102400.72
2023-01-22T14:54:26.669Z,102391.25
2023-01-22T14:57:15.971Z,102389.59
2023-01-22T15:00:08.728Z,102401.41
2023-01-22T15:02:58.385Z,102401.69
2023-01-22T15:05:51.568Z,102408.28
2023-01-22T15:08:42.084Z,102412.69
2023-01-22T15:11:31.280Z,102426.44
2023-01-22T15:14:20.609Z,102418.75
2023-01-22T15:17:10.314Z,102421.53
2023-01-22T15:19:59.546Z,102409.94
2023-01-22T15:22:49.635Z,102422.56
2023-01-22T15:25:40.319Z,102421.50
2023-01-22T15:28:30.411Z,102405.25
2023-01-22T15:31:19.642Z,102414.63
2023-01-22T15:34:08.986Z,102396.78
2023-01-22T15:36:58.277Z,102389.66
2023-01-22T15:39:47.600Z,102393.75
2023-01-22T15:42:38.548Z,102399.53
2023-01-22T15:45:27.866Z,102404.72
2023-01-22T15:48:17.235Z,102425.28
2023-01-22T15:51:11.287Z,102421.50
2023-01-22T15:54:02.877Z,102427.03
2023-01-22T15:56:52.435Z,102436.06
2023-01-22T15:59:43.404Z,102449.25
2023-01-22T16:02:32.748Z,102439.06
2023-01-22T16:05:22.419Z,102447.31
2023-01-22T16:08:11.744Z,102440.50
2023-01-22T16:11:00.996Z,102452.00
2023-01-22T16:13:50.571Z,102447.69
2023-01-22T16:16:41.338Z,102457.25
2023-01-22T16:19:30.484Z,102466.06
2023-01-22T16:22:19.769Z,102466.91
2023-01-22T16:25:10.036Z,102469.09
2023-01-22T16:27:59.310Z,102469.09
2023-01-22T16:30:48.594Z,102472.13
2023-01-22T16:33:43.573Z,102478.75
2023-01-22T16:36:33.498Z,102488.63
2023-01-22T16:39:25.925Z,102484.25
2023-01-22T16:42:15.169Z,102493.59
2023-01-22T16:45:04.684Z,102500.19
2023-01-22T16:47:54.030Z,102509.81
2023-01-22T16:50:44.781Z,102510.69
2023-01-22T16:53:35.053Z,102501.63
2023-01-22T16:56:24.383Z,102502.19
2023-01-22T16:59:13.684Z,102503.06
2023-01-22T17:02:05.752Z,102500.09
2023-01-22T17:04:57.222Z,102505.00
2023-01-22T17:07:47.837Z,102483.31
2023-01-22T17:10:37.556Z,102490.44
2023-01-22T17:13:26.748Z,102487.38
2023-01-22T17:16:16.973Z,102494.53
2023-01-22T17:19:06.446Z,102500.84
2023-01-22T17:21:58.981Z,102501.72
2023-01-22T17:24:49.908Z,102498.16
2023-01-22T17:27:39.955Z,102505.81
2023-01-22T17:30:29.223Z,102507.22
2023-01-22T17:33:20.956Z,102511.91
2023-01-22T17:36:14.168Z,102494.38
2023-01-22T17:39:03.747Z,102490.47
2023-01-22T17:41:54.418Z,102496.22
2023-01-22T17:44:43.760Z,102482.22
2023-01-22T17:47:32.937Z,102480.31
2023-01-22T17:50:22.208Z,102480.56
2023-01-22T17:53:11.557Z,102478.41
2023-01-22T17:56:10.411Z,102476.22
2023-01-22T17:59:04.364Z,102476.22
2023-01-22T18:01:53.778Z,102482.22
2023-01-22T18:04:43.040Z,102481.72
2023-01-22T18:07:32.264Z,102466.34
2023-01-22T18:10:21.440Z,102452.97
2023-01-22T18:13:10.690Z,102467.91
2023-01-22T18:16:02.385Z,102506.88
2023-01-22T18:18:54.555Z,102487.97
2023-01-22T18:21:43.737Z,102494.28
2023-01-22T18:24:34.408Z,102496.78
2023-01-22T18:27:24.163Z,102511.06
2023-01-22T18:30:15.516Z,102514.66
2023-01-22T18:33:06.280Z,102517.69
2023-01-22T18:35:55.527Z,102523.44
2023-01-22T18:38:45.080Z,102508.13
2023-01-22T18:41:34.847Z,102499.63
2023-01-22T18:44:27.685Z,102520.16
2023-01-22T18:47:16.956Z,102513.06
2023-01-22T18:50:10.078Z,102529.78
2023-01-22T18:53:00.863Z,102526.50
2023-01-22T18:55:50.270Z,102536.94
2023-01-22T18:58:41.318Z,102535.00
2023-01-22T19:01:33.547Z,102543.00
2023-01-22T19:04:23.167Z,102552.84
2023-01-22T19:07:13.862Z,102561.09
2023-01-22T19:10:04.693Z,102555.06
2023-01-22T19:12:53.897Z,102558.63
2023-01-22T19:15:43.124Z,102568.78
2023-01-22T19:18:32.378Z,102561.63
2023-01-22T19:21:23.743Z,102561.09
2023-01-22T19:24:15.937Z,102560.81
2023-01-22T19:27:05.201Z,102561.66
2023-01-22T19:29:55.206Z,102566.03
2023-01-22T19:32:45.237Z,102566.03
2023-01-22T19:35:34.438Z,102558.91
2023-01-22T19:38:24.335Z,102552.31
2023-01-22T19:41:15.306Z,102556.72
2023-01-22T19:44:04.866Z,102547.66
2023-01-22T19:46:54.131Z,102554.53
2023-01-22T19:49:43.866Z,102551.50
2023-01-22T19:52:33.313Z,102563.84
2023-01-22T19:55:24.716Z,102567.16
2023-01-22T19:58:15.407Z,102563.31
2023-01-22T20:01:10.169Z,102561.13
2023-01-22T20:03:59.545Z,102580.03
2023-01-22T20:06:51.028Z,102595.66
2023-01-22T20:09:40.239Z,102587.44
2023-01-22T20:12:29.565Z,102594.56
2023-01-22T20:15:20.827Z,102596.19
2023-01-22T20:18:11.417Z,102591.81
2023-01-22T20:21:02.870Z,102600.59
2023-01-22T20:23:52.635Z,102614.84
2023-01-22T20:26:42.137Z,102610.47
2023-01-22T20:29:31.555Z,102607.16
2023-01-22T20:32:22.743Z,102601.97
2023-01-22T20:35:15.595Z,102613.22
2023-01-22T20:38:04.888Z,102609.09
2023-01-22T20:40:54.529Z,102604.16
2023-01-22T20:43:45.091Z,102607.16
2023-01-22T20:46:36.110Z,102600.06
2023-01-22T20:49:27.181Z,102595.09
2023-01-22T20:52:18.931Z,102595.09
2023-01-22T20:55:10.693Z,102607.19
2023-01-22T20:58:00.106Z,102607.75
2023-01-22T21:00:49.397Z,102610.72
2023-01-22T21:03:39.013Z,102618.16
2023-01-22T21:06:31.804Z,102611.84
2023-01-22T21:09:21.164Z,102603.34
2023-01-22T21:12:13.170Z,102615.13
2023-01-22T21:15:03.246Z,102619.25
2023-01-22T21:17:52.517Z,102623.63
2023-01-22T21:20:41.736Z,102616.50
2023-01-22T21:23:32.436Z,102623.91
2023-01-22T21:26:25.269Z,102607.72
2023-01-22T21:29:17.182Z,102623.38
2023-01-22T21:32:06.703Z,102618.13
2023-01-22T21:34:56.178Z,102631.28
2023-01-22T21:37:45.407Z,102632.94
2023-01-22T21:40:35.978Z,102625.28
2023-01-22T21:43:42.559Z,102631.31
2023-01-22T21:46:35.509Z,102613.75
2023-01-22T21:49:25.256Z,102605.25
2023-01-22T21:52:14.454Z,102609.38
2023-01-22T21:55:03.683Z,102608.25
2023-01-22T21:57:54.277Z,102603.88
2023-01-22T22:00:43.609Z,102617.06
2023-01-22T22:03:35.013Z,102607.19
2023-01-22T22:06:24.253Z,102616.22
2023-01-22T22:09:16.252Z,102621.72
2023-01-22T22:12:07.295Z,102624.72
2023-01-22T22:14:58.098Z,102626.38
2023-01-22T22:17:47.412Z,102623.06
2023-01-22T22:20:37.420Z,102632.94
2023-01-22T22:23:26.808Z,102639.53
2023-01-22T22:26:16.123Z,102645.00
2023-01-22T22:29:06.483Z,102632.94
2023-01-22T22:31:57.110Z,102638.97
2023-01-22T22:34:46.367Z,102647.47
2023-01-22T22:37:35.640Z,102654.88
2023-01-22T22:40:24.951Z,102647.19
2023-01-22T22:43:15.823Z,102645.00
2023-01-22T22:46:08.165Z,102662.28
2023-01-22T22:49:01.419Z,102651.56
2023-01-22T22:51:50.731Z,102660.63
2023-01-22T22:54:40.411Z,102640.06
2023-01-22T22:57:29.761Z,102665.56
2023-01-22T23:00:20.676Z,102672.41
2023-01-22T23:03:10.133Z,102658.44
2023-01-22T23:06:08.295Z,102679.56
2023-01-22T23:08:59.403Z,102661.44
2023-01-22T23:11:51.753Z,102659.81
2023-01-22T23:14:41.282Z,102659.81
2023-01-22T23:17:30.653Z,102657.91
2023-01-22T23:20:20.989Z,102661.47
2023-01-22T23:23:11.666Z,102657.06
2023-01-22T23:26:01.095Z,102659.00
2023-01-22T23:28:52.182Z,102653.22
2023-01-22T23:31:42.508Z,102649.41
2023-01-22T23:34:31.873Z,102641.16
2023-01-22T23:37:21.074Z,102625.00
2023-01-22T23:40:14.074Z,102631.28
2023-01-22T23:43:04.019Z,102622.53
2023-01-22T23:45:53.653Z,102635.69
2023-01-22T23:48:43.464Z,102634.88
2023-01-22T23:51:33.236Z,102631.00
2023-01-22T23:54:22.671Z,102645.53
2023-01-22T23:57:13.470Z,102645.53
